createdAt,value
2022-12-19T00:01:38.393Z,17.05
2022-12-19T00:04:08.967Z,17.02
2022-12-19T00:06:38.073Z,17.13
2022-12-19T00:09:11.067Z,17.67
2022-12-19T00:11:39.051Z,17.63
2022-12-19T00:14:06.917Z,16.75
2022-12-19T00:16:33.974Z,16.27
2022-12-19T00:19:02.374Z,18.60
2022-12-19T00:21:33.980Z,18.33
2022-12-19T00:24:06.623Z,18.17
2022-12-19T00:26:48.023Z,18.00
2022-12-19T00:29:15.106Z,18.17
2022-12-19T00:31:43.851Z,18.35
2022-12-19T00:34:11.033Z,16.63
2022-12-19T00:36:38.067Z,16.55
2022-12-19T00:39:08.466Z,18.30
2022-12-19T00:41:41.697Z,17.83
2022-12-19T00:44:16.164Z,17.15
2022-12-19T00:46:47.406Z,17.83
2022-12-19T00:49:19.821Z,15.48
2022-12-19T00:51:46.945Z,16.40
2022-12-19T00:54:13.923Z,17.33
2022-12-19T00:56:42.021Z,18.05
2022-12-19T00:59:10.721Z,17.42
2022-12-19T01:01:40.611Z,17.27
2022-12-19T01:04:29.767Z,16.70
2022-12-19T01:07:02.056Z,16.65
2022-12-19T01:09:30.931Z,17.80
2022-12-19T01:12:17.080Z,17.45
2022-12-19T01:14:44.169Z,16.33
2022-12-19T01:17:11.186Z,16.02
2022-12-19T01:19:43.580Z,16.35
2022-12-19T01:22:12.847Z,16.77
2022-12-19T01:24:40.247Z,15.75
2022-12-19T01:27:07.262Z,15.32
2022-12-19T01:29:34.656Z,16.77
2022-12-19T01:32:03.859Z,16.10
2022-12-19T01:34:31.000Z,15.70
2022-12-19T01:36:57.986Z,16.77
2022-12-19T01:39:24.961Z,15.98
2022-12-19T01:41:54.463Z,13.88
2022-12-19T01:44:24.194Z,14.45
2022-12-19T01:46:57.770Z,15.73
2022-12-19T01:49:36.967Z,15.77
2022-12-19T01:52:07.612Z,15.98
2022-12-19T01:54:40.940Z,12.50
2022-12-19T01:57:12.661Z,13.70
2022-12-19T01:59:46.288Z,16.10
2022-12-19T02:02:23.412Z,12.80
2022-12-19T02:04:50.516Z,15.32
2022-12-19T02:07:20.377Z,14.23
2022-12-19T02:09:56.550Z,14.75
2022-12-19T02:12:26.399Z,13.00
2022-12-19T02:15:02.510Z,13.75
2022-12-19T02:18:02.268Z,13.02
2022-12-19T02:20:47.622Z,12.48
2022-12-19T02:23:32.703Z,13.50
2022-12-19T02:25:59.611Z,12.85
2022-12-19T02:29:00.161Z,13.00
2022-12-19T02:31:35.329Z,13.50
2022-12-19T02:34:21.063Z,12.77
2022-12-19T02:37:03.109Z,11.40
2022-12-19T02:40:09.842Z,13.20
2022-12-19T02:42:42.098Z,11.57
2022-12-19T02:45:11.944Z,11.45
2022-12-19T02:47:45.153Z,11.40
2022-12-19T02:50:12.858Z,12.75
2022-12-19T02:52:39.809Z,12.82
2022-12-19T02:55:14.903Z,12.55
2022-12-19T02:58:01.896Z,11.75
2022-12-19T03:00:29.109Z,11.15
2022-12-19T03:03:02.014Z,11.93
2022-12-19T03:05:41.183Z,11.48
2022-12-19T03:08:29.439Z,12.43
2022-12-19T03:11:06.542Z,10.88
2022-12-19T03:13:38.585Z,10.98
2022-12-19T03:16:08.139Z,11.88
2022-12-19T03:18:35.350Z,10.50
2022-12-19T03:21:25.556Z,11.45
2022-12-19T03:23:55.211Z,11.50
2022-12-19T03:26:25.622Z,9.98
2022-12-19T03:29:15.612Z,11.30
2022-12-19T03:31:45.073Z,10.70
2022-12-19T03:34:18.940Z,12.15
2022-12-19T03:36:52.466Z,12.38
2022-12-19T03:39:21.007Z,10.70
2022-12-19T03:42:10.398Z,12.88
2022-12-19T03:44:41.204Z,12.25
2022-12-19T03:47:18.062Z,12.45
2022-12-19T03:49:46.568Z,13.27
2022-12-19T03:52:22.739Z,12.13
2022-12-19T03:55:00.411Z,11.20
2022-12-19T03:57:37.167Z,12.30
2022-12-19T04:00:08.925Z,11.93
2022-12-19T04:02:40.006Z,12.25
2022-12-19T04:05:10.300Z,10.98
2022-12-19T04:07:39.223Z,11.13
2022-12-19T04:10:09.803Z,11.77
2022-12-19T04:12:41.967Z,9.93
2022-12-19T04:15:12.917Z,12.55
2022-12-19T04:17:45.747Z,10.55
2022-12-19T04:20:21.145Z,11.43
2022-12-19T04:23:17.915Z,10.55
2022-12-19T04:25:51.380Z,11.23
2022-12-19T04:28:47.170Z,11.05
2022-12-19T04:31:15.586Z,10.35
2022-12-19T04:33:42.867Z,11.63
2022-12-19T04:36:11.261Z,11.90
2022-12-19T04:38:38.420Z,11.10
2022-12-19T04:41:05.918Z,10.90
2022-12-19T04:43:32.915Z,12.48
2022-12-19T04:46:00.459Z,10.88
2022-12-19T04:48:27.680Z,9.68
2022-12-19T04:50:56.404Z,11.98
2022-12-19T04:53:24.810Z,11.40
2022-12-19T04:55:51.802Z,10.20
2022-12-19T04:58:21.844Z,11.60
2022-12-19T05:00:49.426Z,11.20
2022-12-19T05:03:16.404Z,12.50
2022-12-19T05:05:43.624Z,10.43
2022-12-19T05:08:11.242Z,11.05
2022-12-19T05:10:38.285Z,12.60
2022-12-19T05:13:05.246Z,11.95
2022-12-19T05:15:32.215Z,11.45
2022-12-19T05:17:59.220Z,11.60
2022-12-19T05:20:26.206Z,11.30
2022-12-19T05:22:53.166Z,12.27
2022-12-19T05:25:20.149Z,11.80
2022-12-19T05:27:47.158Z,13.38
2022-12-19T05:30:14.364Z,11.45
2022-12-19T05:32:41.423Z,12.57
2022-12-19T05:35:08.422Z,12.93
2022-12-19T05:37:35.553Z,14.15
2022-12-19T05:40:02.794Z,12.15
2022-12-19T05:42:29.740Z,15.00
2022-12-19T05:44:56.859Z,12.30
2022-12-19T05:47:23.858Z,13.88
2022-12-19T05:49:50.870Z,13.40
2022-12-19T05:52:18.015Z,12.52
2022-12-19T05:54:45.138Z,14.32
2022-12-19T05:57:12.155Z,14.80
2022-12-19T05:59:39.084Z,14.77
2022-12-19T06:02:06.175Z,13.10
2022-12-19T06:04:33.297Z,12.23
2022-12-19T06:07:00.351Z,12.15
2022-12-19T06:09:27.301Z,13.75
2022-12-19T06:11:54.284Z,12.55
2022-12-19T06:14:21.405Z,12.90
2022-12-19T06:16:48.487Z,13.98
2022-12-19T06:19:15.490Z,13.63
2022-12-19T06:21:47.698Z,13.82
2022-12-19T06:24:15.777Z,12.32
2022-12-19T06:26:43.225Z,12.50
2022-12-19T06:29:10.200Z,13.30
2022-12-19T06:31:37.199Z,13.55
2022-12-19T06:34:04.280Z,12.95
2022-12-19T06:36:31.890Z,15.10
2022-12-19T06:38:59.239Z,12.95
2022-12-19T06:41:45.757Z,15.48
2022-12-19T06:44:15.000Z,12.85
2022-12-19T06:46:42.571Z,12.85
2022-12-19T06:49:11.851Z,12.90
2022-12-19T06:51:39.028Z,13.73
2022-12-19T06:54:06.038Z,12.85
2022-12-19T06:56:37.651Z,13.35
2022-12-19T06:59:05.965Z,14.50
2022-12-19T07:01:39.053Z,15.43
2022-12-19T07:04:08.000Z,13.55
2022-12-19T07:06:35.539Z,14.40
2022-12-19T07:09:02.607Z,13.40
2022-12-19T07:11:29.565Z,12.05
2022-12-19T07:13:56.745Z,14.00
2022-12-19T07:16:25.625Z,12.75
2022-12-19T07:18:52.980Z,14.13
2022-12-19T07:21:20.264Z,12.73
2022-12-19T07:23:47.275Z,12.65
2022-12-19T07:26:14.282Z,14.13
2022-12-19T07:28:41.313Z,14.75
2022-12-19T07:31:08.272Z,14.75
2022-12-19T07:33:35.345Z,13.63
2022-12-19T07:36:02.394Z,12.57
2022-12-19T07:38:29.411Z,12.95
2022-12-19T07:40:56.393Z,12.65
2022-12-19T07:43:23.382Z,13.85
2022-12-19T07:45:55.569Z,15.13
2022-12-19T07:48:23.732Z,13.18
2022-12-19T07:50:50.818Z,15.63
2022-12-19T07:53:17.800Z,12.27
2022-12-19T07:55:45.018Z,12.18
2022-12-19T07:58:12.008Z,13.80
2022-12-19T08:00:39.036Z,12.55
2022-12-19T08:03:06.141Z,11.38
2022-12-19T08:05:35.174Z,10.77
2022-12-19T08:08:02.314Z,12.02
2022-12-19T08:10:29.372Z,11.68
2022-12-19T08:12:56.444Z,12.30
2022-12-19T08:15:23.423Z,13.40
2022-12-19T08:17:50.495Z,10.93
2022-12-19T08:20:17.593Z,11.90
2022-12-19T08:22:44.772Z,11.10
2022-12-19T08:25:12.620Z,13.20
2022-12-19T08:27:39.942Z,10.68
2022-12-19T08:30:07.684Z,10.38
2022-12-19T08:32:36.002Z,11.70
2022-12-19T08:35:03.080Z,10.88
2022-12-19T08:37:30.039Z,11.45
2022-12-19T08:39:57.077Z,11.73
2022-12-19T08:42:24.082Z,12.05
2022-12-19T08:44:51.017Z,11.68
2022-12-19T08:47:18.010Z,12.90
2022-12-19T08:49:44.985Z,11.45
2022-12-19T08:52:11.992Z,12.98
2022-12-19T08:54:39.078Z,12.23
2022-12-19T08:57:06.090Z,12.55
2022-12-19T08:59:33.071Z,11.63
2022-12-19T09:02:02.256Z,11.70
2022-12-19T09:06:02.511Z,12.25
2022-12-19T09:07:17.767Z,11.75
2022-12-19T09:09:45.477Z,12.75
2022-12-19T09:12:17.033Z,11.25
2022-12-19T09:14:46.739Z,12.88
2022-12-19T09:17:14.062Z,12.10
2022-12-19T09:19:43.074Z,11.55
2022-12-19T09:22:15.438Z,11.43
2022-12-19T09:24:42.473Z,11.95
2022-12-19T09:27:09.507Z,12.27
2022-12-19T09:29:36.727Z,11.68
2022-12-19T09:32:03.724Z,10.65
2022-12-19T09:34:36.770Z,11.35
2022-12-19T09:37:07.957Z,11.63
2022-12-19T09:39:36.428Z,12.02
2022-12-19T09:42:12.180Z,12.40
2022-12-19T09:44:42.248Z,10.77
2022-12-19T09:47:20.381Z,11.50
2022-12-19T09:49:49.135Z,11.13
2022-12-19T09:52:29.799Z,11.35
2022-12-19T09:55:24.403Z,11.43
2022-12-19T09:58:14.170Z,12.10
2022-12-19T10:00:47.564Z,11.18
2022-12-19T10:03:32.317Z,11.63
2022-12-19T10:07:11.195Z,12.32
2022-12-19T10:10:34.079Z,11.80
2022-12-19T10:12:40.653Z,10.82
2022-12-19T10:15:44.303Z,11.80
2022-12-19T10:18:42.320Z,11.20
2022-12-19T10:22:15.681Z,12.65
2022-12-19T10:25:08.139Z,13.07
2022-12-19T10:28:00.550Z,11.60
2022-12-19T10:30:32.950Z,10.63
2022-12-19T10:33:24.581Z,12.30
2022-12-19T10:36:02.131Z,11.23
2022-12-19T10:38:51.273Z,13.68
2022-12-19T10:41:26.157Z,12.15
2022-12-19T10:43:53.168Z,11.88
2022-12-19T10:46:42.349Z,13.65
2022-12-19T10:49:22.206Z,10.43
2022-12-19T10:52:04.810Z,12.55
2022-12-19T10:54:43.028Z,12.63
2022-12-19T10:57:22.014Z,12.20
2022-12-19T11:00:04.424Z,13.00
2022-12-19T11:02:45.783Z,12.93
2022-12-19T11:05:44.276Z,13.75
2022-12-19T11:08:21.259Z,11.15
2022-12-19T11:12:03.966Z,11.77
2022-12-19T11:18:55.766Z,12.82
2022-12-19T11:27:45.699Z,11.15
2022-12-19T11:29:16.963Z,12.27
2022-12-19T11:29:30.357Z,13.10
2022-12-19T11:30:38.845Z,12.57
2022-12-19T11:30:43.748Z,12.75
2022-12-19T11:32:32.070Z,10.63
2022-12-19T11:34:21.546Z,11.25
2022-12-19T11:36:55.452Z,10.90
2022-12-19T11:39:33.250Z,12.05
2022-12-19T11:42:17.354Z,11.45
2022-12-19T11:44:59.372Z,13.13
2022-12-19T11:47:26.292Z,12.68
2022-12-19T11:50:04.178Z,12.25
2022-12-19T11:53:11.559Z,11.95
2022-12-19T11:55:46.656Z,9.68
2022-12-19T11:58:14.163Z,11.40
2022-12-19T12:00:51.358Z,10.63
2022-12-19T12:03:54.052Z,11.68
2022-12-19T12:06:34.678Z,12.68
2022-12-19T12:16:31.170Z,12.13
2022-12-19T12:20:25.247Z,12.82
2022-12-19T12:21:44.150Z,12.20
2022-12-19T12:31:16.817Z,14.18
2022-12-19T12:31:18.058Z,11.63
2022-12-19T12:31:47.569Z,11.70
2022-12-19T12:31:48.510Z,11.52
2022-12-19T12:31:56.860Z,12.15
2022-12-19T12:35:54.018Z,11.75
2022-12-19T12:39:54.062Z,11.57
2022-12-19T12:42:53.708Z,12.55
2022-12-19T12:45:25.354Z,12.45
2022-12-19T12:47:53.725Z,12.00
2022-12-19T12:50:25.393Z,12.15
2022-12-19T12:53:02.548Z,10.82
2022-12-19T12:55:40.264Z,11.90
2022-12-19T12:58:46.077Z,12.30
2022-12-19T13:01:34.888Z,13.15
2022-12-19T13:04:13.665Z,13.00
2022-12-19T13:07:02.666Z,11.95
2022-12-19T13:09:34.128Z,12.88
2022-12-19T13:12:46.353Z,14.23
2022-12-19T13:15:32.615Z,11.90
2022-12-19T13:18:09.843Z,13.63
2022-12-19T13:20:43.846Z,14.32
2022-12-19T13:23:29.294Z,13.07
2022-12-19T13:25:56.885Z,13.25
2022-12-19T13:28:23.773Z,13.02
2022-12-19T13:31:16.113Z,12.80
2022-12-19T13:33:55.673Z,15.63
2022-12-19T13:39:51.641Z,13.35
2022-12-19T13:40:07.436Z,13.35
2022-12-19T13:43:09.665Z,13.48
2022-12-19T13:45:41.629Z,15.40
2022-12-19T13:48:19.082Z,14.48
2022-12-19T13:50:49.510Z,14.52
2022-12-19T13:53:23.303Z,14.70
2022-12-19T13:55:54.268Z,13.23
2022-12-19T13:58:34.827Z,13.60
2022-12-19T14:01:11.436Z,14.10
2022-12-19T14:03:50.489Z,15.07
2022-12-19T14:06:22.505Z,13.25
2022-12-19T14:09:25.302Z,13.70
2022-12-19T14:13:40.121Z,13.93
2022-12-19T14:15:13.192Z,14.73
2022-12-19T14:17:36.816Z,13.57
2022-12-19T14:22:01.538Z,14.07
2022-12-19T14:23:10.322Z,13.63
2022-12-19T14:28:15.474Z,13.85
2022-12-19T14:28:54.748Z,13.52
2022-12-19T14:31:25.164Z,13.98
2022-12-19T14:34:18.488Z,13.88
2022-12-19T14:36:53.318Z,13.10
2022-12-19T14:39:29.414Z,14.68
2022-12-19T14:43:55.807Z,14.50
2022-12-19T14:52:50.943Z,13.45
2022-12-19T14:52:52.339Z,12.80
2022-12-19T14:54:41.627Z,14.80
2022-12-19T14:57:25.373Z,15.95
2022-12-19T15:00:51.022Z,15.13
2022-12-19T15:03:27.989Z,12.48
2022-12-19T15:07:09.587Z,13.77
2022-12-19T15:11:02.454Z,13.57
2022-12-19T15:13:47.404Z,14.00
2022-12-19T15:15:38.682Z,14.05
2022-12-19T15:18:26.101Z,14.00
2022-12-19T15:20:57.729Z,14.77
2022-12-19T15:23:26.841Z,14.27
2022-12-19T15:26:04.603Z,15.60
2022-12-19T15:28:38.851Z,14.13
2022-12-19T15:31:18.204Z,14.40
2022-12-19T15:34:14.208Z,13.80
2022-12-19T15:36:32.238Z,14.30
2022-12-19T15:38:59.481Z,15.50
2022-12-19T15:41:26.609Z,14.85
2022-12-19T15:44:03.524Z,14.02
2022-12-19T15:46:32.568Z,13.85
2022-12-19T15:48:59.817Z,13.40
2022-12-19T15:51:26.829Z,13.25
2022-12-19T15:53:57.019Z,15.00
2022-12-19T15:56:35.241Z,16.02
2022-12-19T15:59:04.309Z,15.68
2022-12-19T16:01:33.448Z,13.90
2022-12-19T16:04:03.749Z,14.32
2022-12-19T16:06:31.009Z,13.90
2022-12-19T16:08:58.814Z,14.98
2022-12-19T16:11:25.952Z,15.75
2022-12-19T16:13:58.562Z,13.98
2022-12-19T16:16:25.595Z,13.40
2022-12-19T16:18:52.620Z,14.70
2022-12-19T16:21:33.203Z,13.23
2022-12-19T16:24:01.828Z,15.73
2022-12-19T16:26:34.263Z,13.75
2022-12-19T16:29:01.846Z,13.20
2022-12-19T16:31:29.333Z,13.88
2022-12-19T16:33:56.459Z,14.60
2022-12-19T16:36:23.498Z,14.10
2022-12-19T16:38:50.555Z,15.13
2022-12-19T16:41:26.227Z,12.80
2022-12-19T16:43:53.196Z,14.88
2022-12-19T16:46:24.067Z,14.82
2022-12-19T16:48:51.111Z,14.07
2022-12-19T16:51:24.254Z,13.75
2022-12-19T16:53:54.929Z,14.90
2022-12-19T16:56:31.369Z,16.30
2022-12-19T16:59:01.448Z,14.45
2022-12-19T17:01:29.098Z,15.18
2022-12-19T17:03:56.533Z,15.25
2022-12-19T17:06:24.439Z,15.13
2022-12-19T17:08:51.467Z,14.80
2022-12-19T17:11:21.912Z,14.73
2022-12-19T17:13:52.751Z,15.48
2022-12-19T17:16:19.946Z,14.82
2022-12-19T17:18:48.899Z,13.75
2022-12-19T17:21:22.953Z,14.60
2022-12-19T17:23:50.935Z,14.15
2022-12-19T17:26:18.721Z,15.27
2022-12-19T17:28:49.533Z,15.43
2022-12-19T17:31:24.631Z,15.38
2022-12-19T17:33:51.924Z,14.95
2022-12-19T17:36:24.877Z,13.50
2022-12-19T17:38:53.143Z,15.60
2022-12-19T17:41:20.147Z,16.67
2022-12-19T17:43:47.164Z,15.35
2022-12-19T17:46:21.972Z,15.57
2022-12-19T17:48:51.444Z,16.52
2022-12-19T17:51:23.816Z,15.00
2022-12-19T17:53:51.604Z,14.60
2022-12-19T17:56:21.102Z,15.68
2022-12-19T17:58:51.151Z,14.23
2022-12-19T18:01:24.001Z,16.10
2022-12-19T18:03:53.980Z,13.70
2022-12-19T18:06:22.441Z,15.70
2022-12-19T18:08:49.413Z,14.75
2022-12-19T18:11:25.649Z,15.55
2022-12-19T18:13:53.911Z,14.27
2022-12-19T18:16:27.025Z,13.00
2022-12-19T18:18:54.343Z,14.73
2022-12-19T18:21:24.747Z,16.50
2022-12-19T18:23:52.539Z,14.82
2022-12-19T18:26:19.675Z,14.43
2022-12-19T18:28:47.189Z,13.80
2022-12-19T18:31:18.391Z,14.52
2022-12-19T18:33:47.854Z,16.52
2022-12-19T18:36:25.559Z,15.80
2022-12-19T18:38:53.767Z,14.10
2022-12-19T18:41:21.640Z,13.82
2022-12-19T18:43:49.133Z,14.07
2022-12-19T18:46:28.980Z,15.38
2022-12-19T18:48:56.109Z,14.95
2022-12-19T18:51:23.447Z,15.70
2022-12-19T18:53:50.860Z,14.93
2022-12-19T18:56:18.281Z,15.25
2022-12-19T18:58:45.517Z,15.27
2022-12-19T19:01:18.872Z,14.55
2022-12-19T19:03:54.025Z,15.13
2022-12-19T19:06:25.908Z,15.60
2022-12-19T19:08:53.454Z,15.02
2022-12-19T19:11:23.540Z,14.70
2022-12-19T19:13:51.986Z,13.20
2022-12-19T19:16:22.717Z,14.65
2022-12-19T19:18:53.489Z,16.58
2022-12-19T19:21:27.430Z,15.75
2022-12-19T19:24:01.716Z,14.43
2022-12-19T19:26:28.908Z,14.63
2022-12-19T19:28:56.063Z,16.02
2022-12-19T19:31:27.274Z,15.15
2022-12-19T19:34:21.293Z,14.57
2022-12-19T19:36:53.922Z,14.95
2022-12-19T19:39:23.289Z,14.80
2022-12-19T19:41:50.760Z,13.82
2022-12-19T19:44:17.781Z,13.85
2022-12-19T19:46:45.491Z,15.32
2022-12-19T19:49:12.715Z,16.27
2022-12-19T19:51:39.749Z,15.60
2022-12-19T19:54:08.609Z,14.88
2022-12-19T19:56:35.971Z,15.20
2022-12-19T19:59:03.051Z,13.23
2022-12-19T20:01:30.496Z,16.08
2022-12-19T20:03:58.120Z,14.60
2022-12-19T20:06:25.863Z,14.10
2022-12-19T20:08:53.656Z,16.33
2022-12-19T20:11:21.153Z,15.10
2022-12-19T20:13:48.263Z,14.63
2022-12-19T20:16:17.413Z,15.18
2022-12-19T20:18:49.661Z,14.70
2022-12-19T20:21:18.561Z,14.90
2022-12-19T20:23:46.365Z,15.65
2022-12-19T20:26:16.669Z,14.57
2022-12-19T20:28:49.768Z,15.27
2022-12-19T20:31:23.675Z,16.00
2022-12-19T20:33:53.602Z,15.60
2022-12-19T20:36:22.144Z,13.85
2022-12-19T20:38:53.199Z,15.75
2022-12-19T20:41:20.553Z,16.40
2022-12-19T20:43:48.407Z,14.10
2022-12-19T20:46:19.543Z,17.15
2022-12-19T20:48:48.419Z,15.35
2022-12-19T20:51:16.760Z,15.38
2022-12-19T20:53:44.330Z,14.93
2022-12-19T20:56:17.298Z,17.35
2022-12-19T20:58:45.195Z,15.77
2022-12-19T21:01:15.225Z,15.55
2022-12-19T21:03:43.082Z,16.15
2022-12-19T21:06:12.766Z,14.52
2022-12-19T21:08:40.522Z,14.48
2022-12-19T21:11:09.189Z,15.25
2022-12-19T21:13:38.128Z,15.05
2022-12-19T21:16:09.309Z,13.45
2022-12-19T21:18:37.858Z,14.40
2022-12-19T21:21:07.337Z,13.60
2022-12-19T21:23:34.454Z,14.00
2022-12-19T21:26:03.365Z,16.08
2022-12-19T21:28:30.927Z,15.50
2022-12-19T21:31:07.018Z,13.20
2022-12-19T21:33:34.571Z,12.70
2022-12-19T21:36:20.472Z,14.68
2022-12-19T21:38:49.409Z,15.25
2022-12-19T21:41:19.430Z,13.85
2022-12-19T21:43:48.976Z,13.80
2022-12-19T21:46:18.234Z,15.32
2022-12-19T21:48:47.866Z,14.80
2022-12-19T21:51:17.349Z,14.73
2022-12-19T21:53:44.843Z,15.43
2022-12-19T21:56:47.410Z,14.82
2022-12-19T21:59:16.783Z,16.50
2022-12-19T22:01:45.349Z,15.48
2022-12-19T22:04:17.854Z,15.07
2022-12-19T22:06:45.115Z,13.45
2022-12-19T22:09:16.659Z,12.70
2022-12-19T22:11:45.018Z,14.38
2022-12-19T22:14:16.791Z,15.20
2022-12-19T22:16:44.773Z,13.40
2022-12-19T22:19:15.476Z,15.55
2022-12-19T22:21:43.154Z,15.07
2022-12-19T22:24:13.350Z,15.13
2022-12-19T22:26:40.942Z,17.00
2022-12-19T22:29:10.810Z,16.40
2022-12-19T22:31:39.141Z,15.48
2022-12-19T22:34:11.696Z,15.32
2022-12-19T22:36:40.848Z,15.63
2022-12-19T22:39:11.516Z,17.40
2022-12-19T22:41:39.718Z,17.77
2022-12-19T22:44:07.579Z,15.10
2022-12-19T22:46:37.170Z,17.58
2022-12-19T22:49:09.174Z,17.67
2022-12-19T22:51:37.406Z,16.02
2022-12-19T22:54:05.604Z,18.25
2022-12-19T22:56:34.551Z,16.40
2022-12-19T22:59:04.667Z,17.05
2022-12-19T23:01:37.244Z,15.52
2022-12-19T23:04:06.258Z,16.25
2022-12-19T23:06:36.858Z,17.23
2022-12-19T23:09:05.866Z,16.90
2022-12-19T23:11:37.682Z,17.80
2022-12-19T23:14:07.368Z,16.08
2022-12-19T23:16:34.601Z,18.77
2022-12-19T23:19:01.710Z,13.50
2022-12-19T23:21:28.777Z,16.00
2022-12-19T23:23:56.672Z,17.45
2022-12-19T23:26:26.847Z,15.88
2022-12-19T23:28:59.483Z,14.63
2022-12-19T23:31:27.923Z,15.93
2022-12-19T23:33:56.195Z,16.23
2022-12-19T23:37:00.241Z,15.45
2022-12-19T23:39:13.025Z,14.93
2022-12-19T23:41:40.335Z,16.85
2022-12-19T23:44:08.993Z,14.85
2022-12-19T23:46:36.483Z,14.90
2022-12-19T23:49:03.719Z,16.55
2022-12-19T23:51:30.848Z,15.75
2022-12-19T23:53:57.872Z,14.57
2022-12-19T23:56:32.470Z,14.85
2022-12-19T23:59:00.538Z,15.82
